createdAt,value
2022-09-21T00:02:00.499Z,9.63
2022-09-21T00:07:02.496Z,10.03
2022-09-21T00:12:04.808Z,9.64
2022-09-21T00:17:06.884Z,9.53
2022-09-21T00:22:09.007Z,9.52
2022-09-21T00:27:10.966Z,9.91
2022-09-21T00:32:13.082Z,9.63
2022-09-21T00:37:15.025Z,9.96
2022-09-21T00:42:23.388Z,9.64
2022-09-21T00:47:37.582Z,9.65
2022-09-21T00:52:43.763Z,9.57
2022-09-21T00:57:49.361Z,9.54
2022-09-21T01:02:51.733Z,9.37
2022-09-21T01:07:55.736Z,9.51
2022-09-21T01:13:50.221Z,9.67
2022-09-21T01:19:18.244Z,9.65
2022-09-21T01:24:51.043Z,9.62
2022-09-21T01:30:02.374Z,9.55
2022-09-21T01:35:10.707Z,9.82
2022-09-21T01:40:30.907Z,9.50
2022-09-21T01:45:44.498Z,9.46
2022-09-21T01:50:52.762Z,9.38
2022-09-21T01:56:41.115Z,9.47
2022-09-21T02:01:52.392Z,9.38
2022-09-21T02:06:55.464Z,9.30
2022-09-21T02:11:58.302Z,9.33
2022-09-21T02:17:15.538Z,9.41
2022-09-21T02:22:38.087Z,9.30
2022-09-21T02:27:56.234Z,9.44
2022-09-21T02:33:21.087Z,9.28
2022-09-21T02:38:33.650Z,9.27
2022-09-21T02:43:51.869Z,9.17
2022-09-21T02:49:10.906Z,9.29
2022-09-21T02:54:16.783Z,9.20
2022-09-21T02:59:19.000Z,9.14
2022-09-21T03:04:22.011Z,9.08
2022-09-21T03:09:24.525Z,9.13
2022-09-21T03:14:26.572Z,8.99
2022-09-21T03:19:29.488Z,9.56
2022-09-21T03:24:47.030Z,9.25
2022-09-21T03:29:49.837Z,9.14
2022-09-21T03:34:51.983Z,9.31
2022-09-21T03:39:53.878Z,9.83
2022-09-21T03:44:56.063Z,9.57
2022-09-21T03:49:57.962Z,10.01
2022-09-21T03:55:00.010Z,9.75
2022-09-21T04:00:04.064Z,10.23
2022-09-21T04:05:11.131Z,9.99
2022-09-21T04:10:17.057Z,10.16
2022-09-21T04:15:19.730Z,10.32
2022-09-21T04:20:22.254Z,10.49
2022-09-21T04:25:24.265Z,10.62
2022-09-21T04:30:26.231Z,11.27
2022-09-21T04:35:28.278Z,10.99
2022-09-21T04:40:31.248Z,11.11
2022-09-21T04:45:34.617Z,11.27
2022-09-21T04:50:38.228Z,11.45
2022-09-21T04:55:45.452Z,11.57
2022-09-21T05:00:52.818Z,11.75
2022-09-21T05:05:56.917Z,11.83
2022-09-21T05:10:59.531Z,12.02
2022-09-21T05:16:02.005Z,12.21
2022-09-21T05:21:06.255Z,12.49
2022-09-21T05:26:08.371Z,12.63
2022-09-21T05:31:20.388Z,13.07
2022-09-21T05:36:28.201Z,13.77
2022-09-21T05:41:31.061Z,13.69
2022-09-21T05:46:38.906Z,14.22
2022-09-21T05:51:46.977Z,14.92
2022-09-21T05:56:51.971Z,15.72
2022-09-21T06:02:14.694Z,16.62
2022-09-21T06:07:16.773Z,17.10
2022-09-21T06:12:18.944Z,17.63
2022-09-21T06:17:21.042Z,18.11
2022-09-21T06:22:23.091Z,18.71
2022-09-21T06:27:25.313Z,19.12
2022-09-21T06:32:27.371Z,19.55
2022-09-21T06:37:29.411Z,20.03
2022-09-21T06:42:31.436Z,20.31
2022-09-21T06:47:33.458Z,21.32
2022-09-21T06:52:35.554Z,22.79
2022-09-21T06:57:40.288Z,24.18
2022-09-21T07:02:45.763Z,25.56
2022-09-21T07:07:53.245Z,25.96
2022-09-21T07:12:56.108Z,26.21
2022-09-21T07:18:06.003Z,25.61
2022-09-21T07:23:14.268Z,24.07
2022-09-21T07:28:16.800Z,22.62
2022-09-21T07:33:18.885Z,21.96
2022-09-21T07:38:20.951Z,21.52
2022-09-21T07:43:23.020Z,21.16
2022-09-21T07:48:25.713Z,20.60
2022-09-21T07:53:27.760Z,20.90
2022-09-21T07:58:48.330Z,21.24
2022-09-21T08:03:52.080Z,21.34
2022-09-21T08:08:57.677Z,21.32
2022-09-21T08:14:03.528Z,21.47
2022-09-21T08:19:05.755Z,21.55
2022-09-21T08:24:07.807Z,21.34
2022-09-21T08:29:09.862Z,20.70
2022-09-21T08:34:12.310Z,20.10
2022-09-21T08:39:14.400Z,19.74
2022-09-21T08:44:45.486Z,19.86
2022-09-21T08:49:59.854Z,19.69
2022-09-21T08:55:06.312Z,19.78
2022-09-21T09:00:14.926Z,20.67
2022-09-21T09:05:54.110Z,21.80
2022-09-21T09:11:14.843Z,22.22
2022-09-21T09:16:45.213Z,22.80
2022-09-21T09:21:47.447Z,22.99
2022-09-21T09:26:52.018Z,23.33
2022-09-21T09:31:55.563Z,22.83
2022-09-21T09:37:11.286Z,22.23
2022-09-21T09:42:20.194Z,21.57
2022-09-21T09:47:40.959Z,20.78
2022-09-21T09:52:44.285Z,21.07
2022-09-21T09:57:47.672Z,21.58
2022-09-21T10:02:58.677Z,22.09
2022-09-21T10:08:01.111Z,22.25
2022-09-21T10:13:22.097Z,23.05
2022-09-21T10:18:41.052Z,23.00
2022-09-21T10:23:51.729Z,22.53
2022-09-21T10:29:02.399Z,23.40
2022-09-21T10:34:04.567Z,24.23
2022-09-21T10:39:23.558Z,24.06
2022-09-21T10:44:36.390Z,22.72
2022-09-21T10:49:46.270Z,21.85
2022-09-21T10:54:52.341Z,21.48
2022-09-21T10:59:54.532Z,21.19
2022-09-21T11:05:16.370Z,21.50
2022-09-21T11:10:18.238Z,21.63
2022-09-21T11:15:45.910Z,20.56
2022-09-21T11:20:55.109Z,19.91
2022-09-21T11:26:26.189Z,19.57
2022-09-21T11:31:47.435Z,19.21
2022-09-21T11:37:22.430Z,18.90
2022-09-21T11:42:30.177Z,18.42
2022-09-21T11:48:03.927Z,18.65
2022-09-21T11:53:19.644Z,18.64
2022-09-21T11:58:52.598Z,18.72
2022-09-21T12:04:13.538Z,18.79
2022-09-21T12:09:33.920Z,18.91
2022-09-21T12:15:09.496Z,18.86
2022-09-21T12:20:29.690Z,18.76
2022-09-21T12:25:41.431Z,18.28
2022-09-21T12:30:48.025Z,17.75
2022-09-21T12:35:59.241Z,17.66
2022-09-21T12:41:22.146Z,17.63
2022-09-21T12:46:30.163Z,17.32
2022-09-21T12:51:37.131Z,17.18
2022-09-21T12:56:48.261Z,17.15
2022-09-21T13:01:57.348Z,17.06
2022-09-21T13:07:24.191Z,16.98
2022-09-21T13:12:34.608Z,16.86
2022-09-21T13:17:36.787Z,16.75
2022-09-21T13:22:39.979Z,16.80
2022-09-21T13:28:01.599Z,17.09
2022-09-21T13:33:25.347Z,17.12
2022-09-21T13:38:34.316Z,17.27
2022-09-21T13:43:58.596Z,17.51
2022-09-21T13:49:12.592Z,17.55
2022-09-21T13:54:15.048Z,17.45
2022-09-21T13:59:23.290Z,17.44
2022-09-21T14:04:37.162Z,17.43
2022-09-21T14:09:56.149Z,17.35
2022-09-21T14:15:21.564Z,17.32
2022-09-21T14:20:30.397Z,17.04
2022-09-21T14:25:54.912Z,17.25
2022-09-21T14:31:03.074Z,16.98
2022-09-21T14:36:09.016Z,16.90
2022-09-21T14:41:19.865Z,16.72
2022-09-21T14:46:40.694Z,16.61
2022-09-21T14:52:04.286Z,16.44
2022-09-21T14:57:20.824Z,16.10
2022-09-21T15:02:35.807Z,15.97
2022-09-21T15:08:00.694Z,15.85
2022-09-21T15:13:23.454Z,15.80
2022-09-21T15:18:25.912Z,15.42
2022-09-21T15:23:39.380Z,15.36
2022-09-21T15:29:08.836Z,15.27
2022-09-21T15:34:15.214Z,15.23
2022-09-21T15:39:29.345Z,15.32
2022-09-21T15:44:37.175Z,15.21
2022-09-21T15:49:39.857Z,15.04
2022-09-21T15:54:49.172Z,14.98
2022-09-21T15:59:52.204Z,14.87
2022-09-21T16:04:54.689Z,14.74
2022-09-21T16:09:57.118Z,14.73
2022-09-21T16:15:09.129Z,14.75
2022-09-21T16:20:19.880Z,15.00
2022-09-21T16:25:50.867Z,14.48
2022-09-21T16:30:55.196Z,14.42
2022-09-21T16:35:58.955Z,14.35
2022-09-21T16:41:02.565Z,14.36
2022-09-21T16:46:08.329Z,14.30
2022-09-21T16:51:25.065Z,14.33
2022-09-21T16:56:27.223Z,14.19
2022-09-21T17:01:30.421Z,14.17
2022-09-21T17:06:32.836Z,14.15
2022-09-21T17:11:35.315Z,14.14
2022-09-21T17:16:37.948Z,14.04
2022-09-21T17:21:40.440Z,14.20
2022-09-21T17:26:44.727Z,14.15
2022-09-21T17:31:51.208Z,14.13
2022-09-21T17:36:55.023Z,14.09
2022-09-21T17:42:02.895Z,13.91
2022-09-21T17:47:20.717Z,13.73
2022-09-21T17:52:42.077Z,13.30
2022-09-21T17:57:56.728Z,13.32
2022-09-21T18:02:59.353Z,13.01
2022-09-21T18:08:02.361Z,12.77
2022-09-21T18:13:19.636Z,12.68
2022-09-21T18:18:37.979Z,12.44
2022-09-21T18:24:30.028Z,12.34
2022-09-21T18:29:42.324Z,12.24
2022-09-21T18:34:47.381Z,12.29
2022-09-21T18:40:02.772Z,12.44
2022-09-21T18:45:12.258Z,12.50
2022-09-21T18:50:31.941Z,12.66
2022-09-21T18:55:34.673Z,12.60
2022-09-21T19:00:37.235Z,12.65
2022-09-21T19:05:49.946Z,12.77
2022-09-21T19:11:32.301Z,12.95
2022-09-21T19:16:53.418Z,12.99
2022-09-21T19:22:14.534Z,13.00
2022-09-21T19:27:52.009Z,13.05
2022-09-21T19:33:00.121Z,12.97
2022-09-21T19:38:04.035Z,12.93
2022-09-21T19:43:28.473Z,13.04
2022-09-21T19:48:42.431Z,12.95
2022-09-21T19:54:03.249Z,12.86
2022-09-21T19:59:23.790Z,12.72
2022-09-21T20:04:46.058Z,13.00
2022-09-21T20:09:56.514Z,13.25
2022-09-21T20:15:15.913Z,12.90
2022-09-21T20:20:26.780Z,12.87
2022-09-21T20:25:44.476Z,12.85
2022-09-21T20:30:47.202Z,12.68
2022-09-21T20:35:50.725Z,12.69
2022-09-21T20:40:54.117Z,12.73
2022-09-21T20:45:58.532Z,12.77
2022-09-21T20:51:02.162Z,12.85
2022-09-21T20:56:04.325Z,12.83
2022-09-21T21:01:06.918Z,13.27
2022-09-21T21:06:09.524Z,12.80
2022-09-21T21:11:11.936Z,12.70
2022-09-21T21:16:14.010Z,12.66
2022-09-21T21:21:15.912Z,13.09
2022-09-21T21:26:18.120Z,12.64
2022-09-21T21:31:21.582Z,12.58
2022-09-21T21:36:23.773Z,12.59
2022-09-21T21:41:25.675Z,13.03
2022-09-21T21:46:27.956Z,12.61
2022-09-21T21:51:30.507Z,12.53
2022-09-21T21:56:32.526Z,12.53
2022-09-21T22:01:34.485Z,12.99
2022-09-21T22:06:38.960Z,12.62
2022-09-21T22:11:41.034Z,12.54
2022-09-21T22:16:43.146Z,12.96
2022-09-21T22:21:51.657Z,12.56
2022-09-21T22:26:55.939Z,12.43
2022-09-21T22:31:58.048Z,13.01
2022-09-21T22:37:00.731Z,12.67
2022-09-21T22:42:03.715Z,12.61
2022-09-21T22:47:05.887Z,12.64
2022-09-21T22:52:07.968Z,12.55
2022-09-21T22:57:09.913Z,13.14
2022-09-21T23:02:12.057Z,12.70
2022-09-21T23:07:16.844Z,12.60
2022-09-21T23:12:19.051Z,12.42
2022-09-21T23:17:21.003Z,12.98
2022-09-21T23:22:23.166Z,12.57
2022-09-21T23:27:25.525Z,12.52
2022-09-21T23:32:27.927Z,12.52
2022-09-21T23:37:30.142Z,12.51
2022-09-21T23:42:32.229Z,12.51
2022-09-21T23:47:34.238Z,12.99
2022-09-21T23:52:36.439Z,12.62
2022-09-21T23:57:38.548Z,12.52
